logo
App data

Attempt[42]

Challenging first person puzzle platformer.
Store | Hub | SteamDB
Developer: ThinkOfGames Publisher: ThinkOfGames
Genre: Action, Casual, Indie
Languages: English
Tags: Casual (33), Indie (32), Puzzle (25), Action (22), Puzzle-Platformer (21), Singleplayer (11), 3D Platformer (10), Relaxing (10)
Category: Single-player, Steam Achievements, Steam Trading Cards
Release date: Dec 8, 2016
Price: $2.99
Old userscore: 48% Owners: 50,000 .. 100,000
Followers: 111
Playtime in the last 2 weeks: 01:05 (average) 01:05 (median)
Playtime total: 03:58 (average) 03:31 (median)

Steam Spy is still in beta, so expect major bugs.

Owners data:

Access restricted.

This feature is only available to users with special access rights. Sorry.

If you want to proceed, you need to register or log in first and then back Steam Spy on Patreon. Look for Indie or Pro pledge.

Don't forget to use the same email as on Steam Spy!

Audience in 2 weeks:

Access restricted.

This feature is only available to users with special access rights. Sorry.

If you want to proceed, you need to register or log in first and then back Steam Spy on Patreon. Look for Indie or Pro pledge.

Don't forget to use the same email as on Steam Spy!

Peak daily concurrent players:

CCU data courtesy of SteamDB. Used with permission.

Hourly concurrent players:

YouTube:

The views data is based on top 50 videos uploaded last week. Actual number of views might be more than the number shown.

The displayed number of videos uploaded yesterday is limited to 50, so if there were more videos uploaded, the number will still show 50.

If the game has commonly used word as its name (like "FEAR" or "Volume") its number of Youtube views might be wrong.

Games similar to this one:

# Game Release date
Price
Score rank
(Userscore / Metascore)
Owners
Players
Playtime (Median)
1 Night Blights Apr 15, 2016 $6.99100% (100%)0 .. 20,0000%00:00 (00:00)
2 Everyday Genius: SquareLogic Oct 21, 2009 $4.9999% (98%)0 .. 20,0000%00:00 (00:00)
3 Unium Mar 27, 2015 $1.9993% (95%)20,000 .. 50,0000%00:00 (00:00)
4 Divide By Sheep Jul 2, 2015 $4.9993% (95%/83%)100,000 .. 200,0000.63%21:16 (13:15)
5 Moonlight Feb 5, 2016 $1.9993% (95%)0 .. 20,0000%00:00 (00:00)
6 Estiman Nov 23, 2016 $0.99N/A (N/A)0 .. 20,0000%00:00 (00:00)
7 Koala Kids Jun 22, 2015 $0.4977% (90%)20,000 .. 50,0000%00:00 (00:00)
8 The Way We All Go Mar 24, 2015 $5.9977% (90%)0 .. 20,0000%00:00 (00:00)
9 Cloudberry Kingdom Aug 2, 2013 $9.9977% (90%/67%)20,000 .. 50,0003.57%00:57 (00:19)
10 Forgotten, Not Lost - A Kinetic Novel Apr 2, 2016 $1.9977% (90%)50,000 .. 100,0000.31%05:23 (01:47)
11 Lobotomy Corporation | Monster Management Simulation Apr 9, 2018 $24.9974% (89%)100,000 .. 200,0000.89%00:53 (00:17)
12 This Starry Midnight We Make Jun 1, 2015 $9.99N/A (N/A)0 .. 20,0000%00:00 (00:00)
13 Rooms: The Unsolvable Puzzle May 1, 2015 $14.9971% (88%/66%)0 .. 20,0000%00:00 (00:00)
14 Security Hole Sep 28, 2016 $9.9966% (86%)0 .. 20,0000%00:00 (00:00)
15 Gigachess Dec 15, 2015 $0.9966% (86%)0 .. 20,0000%00:00 (00:00)
16 Masochisia Oct 9, 2015 $7.9966% (86%/68%)0 .. 20,0000%00:00 (00:00)
17 Alpha Runner Sep 2, 2015 $0.9966% (86%)100,000 .. 200,0000.37%69:15 (23:05)
18 In Between Aug 21, 2015 $11.9966% (86%/68%)50,000 .. 100,0000%00:00 (00:00)
19 Anode Oct 5, 2015 $3.9966% (86%)20,000 .. 50,0000%00:00 (00:00)
20 Sentinel 4: Dark Star Aug 13, 2015 $6.99N/A (N/A)0 .. 20,0000%00:00 (00:00)
21 Project Starship Apr 5, 2016 $0.9963% (85%)200,000 .. 500,0000%00:00 (00:00)
22 Collisions Jul 28, 2015 $3.9960% (84%)50,000 .. 100,0000%00:00 (00:00)
23 Crash Drive 2 May 28, 2015 $4.9960% (84%)50,000 .. 100,0000%00:00 (00:00)
24 Governor of Poker 2 - Premium Edition Oct 11, 2010 $14.9960% (84%)20,000 .. 50,0000%00:00 (00:00)
25 Cute Things Dying Violently Sep 2, 2015 $2.9958% (83%)0 .. 20,0000%00:00 (00:00)
26 Ancients of Ooga May 20, 2011 $9.99N/A (N/A)20,000 .. 50,0000%00:00 (00:00)
27 Automation - The Car Company Tycoon Game Mar 12, 2015 $29.9955% (82%)50,000 .. 100,00021.19%01:57 (01:11)
28 Stay Alight Mar 2, 2015 $3.9953% (81%)50,000 .. 100,0000%00:00 (00:00)
29 Iron Sea Defenders Sep 9, 2016 $4.9953% (81%)20,000 .. 50,0000.4%00:30 (00:10)
30 Egg Returns Home May 5, 2015 $0.9951% (80%)20,000 .. 50,0000%00:00 (00:00)
31 Star Sky - ブルームーン Oct 23, 2015 $1.9951% (80%)0 .. 20,0000%00:00 (00:00)
32 Space Drifters 2D Mar 28, 2016 $0.99N/A (N/A)20,000 .. 50,0000%00:00 (00:00)
33 Until I Have You Apr 4, 2016 $13.9949% (79%)0 .. 20,0000%00:00 (00:00)
34 The Last NightMary - A Lenda do Cabeça de Cuia Nov 2, 2015 $3.9949% (79%)50,000 .. 100,0000%00:00 (00:00)
35 GamersGoMakers Aug 8, 2014 $9.9949% (79%)0 .. 20,0000%00:00 (00:00)
36 CAPSULE May 29, 2014 $4.9947% (78%)0 .. 20,0000%00:00 (00:00)
37 Particulars Nov 19, 2014 $5.99N/A (N/A/74%)20,000 .. 50,0000%00:00 (00:00)
38 Alchemy Mysteries: Prague Legends Dec 22, 2014 $1.9945% (77%)100,000 .. 200,0000%00:00 (00:00)
39 Pixel Puzzles 2: Birds Feb 20, 2015 $1.9945% (77%)200,000 .. 500,0000.35%51:33 (34:21)
40 Ionball 2: Ionstorm Jun 6, 2014 $4.9945% (77%/70%)200,000 .. 500,0000%00:00 (00:00)
41 MXGP - The Official Motocross Videogame Mar 28, 2014 $19.9945% (77%)50,000 .. 100,0000%00:00 (00:00)
42 Paranormal State: Poison Spring Apr 9, 2014 $9.9945% (77%)50,000 .. 100,0000%00:00 (00:00)
43 The Deletion Jul 30, 2015 $1.9943% (76%)20,000 .. 50,0000%00:00 (00:00)
44 Mayhem Intergalactic Jan 22, 2009 $9.99N/A (N/A)0 .. 20,0000%00:00 (00:00)
45 BalanCity Sep 21, 2016 $7.9941% (75%)20,000 .. 50,0003.43%00:25 (00:19)
46 Crash Wheels Dec 20, 2018 $4.9941% (75%)20,000 .. 50,0001.59%00:01 (00:00)
47 Neon Prism Nov 18, 2016 $4.9939% (74%)50,000 .. 100,0000.25%03:16 (01:05)
48 Laserlife Sep 22, 2015 $9.9937% (73%)0 .. 20,0000%00:00 (00:00)
49 Riddles Of The Past Jul 22, 2016 $6.9937% (73%)0 .. 20,0000%00:00 (00:00)
50 Crashed Lander Feb 4, 2015 $4.99N/A (N/A)0 .. 20,0000%00:00 (00:00)
51 Cheesecake Cool Conrad Oct 8, 2014 $4.99N/A (N/A)0 .. 20,0000%00:00 (00:00)
52 Viking Brothers Apr 23, 2014 $9.99N/A (N/A)0 .. 20,0000%00:00 (00:00)
53 Strategy & Tactics: Dark Ages Aug 4, 2017 $14.9929% (68%)20,000 .. 50,0002.82%67:07 (44:01)
54 Ace Of Words May 13, 2016 $4.9929% (68%)100,000 .. 200,0000%00:00 (00:00)
55 Impossible Quest Jun 3, 2016 $1.9929% (68%)0 .. 20,0000%00:00 (00:00)
56 Mind Games Mar 4, 2016 $2.9928% (67%)0 .. 20,0000%00:00 (00:00)
57 Caravanserail Feb 26, 2016 $2.99N/A (N/A)0 .. 20,0000%00:00 (00:00)
58 Wildlife Park 2 Jul 17, 2014 $6.9926% (66%)100,000 .. 200,0000%00:00 (00:00)
59 Hoplite Dec 14, 2016 $0.9925% (65%)50,000 .. 100,0003.62%04:09 (04:32)
60 Reset 1-1 Aug 30, 2016 $1.9925% (65%)200,000 .. 500,0000%00:00 (00:00)
61 Metrocide Dec 15, 2014 $12.9923% (63%/68%)20,000 .. 50,0000%00:00 (00:00)
62 Marble Duel Nov 12, 2015 $4.9923% (63%)50,000 .. 100,0001.68%01:43 (00:58)
63 Won't You Be My Laser? Sep 2, 2016 $0.99N/A (N/A)0 .. 20,0000%00:00 (00:00)
64 Meadowland Oct 22, 2014 $0.99N/A (N/A)0 .. 20,0000%00:00 (00:00)
65 Goodnight Butcher Dec 18, 2015 $1.99N/A (N/A)20,000 .. 50,0000%00:00 (00:00)
66 Airstrike HD Mar 23, 2016 $1.9919% (60%)100,000 .. 200,0000%00:00 (00:00)
67 Pixel Survivors May 5, 2016 $3.9919% (60%)50,000 .. 100,0000%00:00 (00:00)
68 Star Chronicles: Delta Quadrant Jul 7, 2015 $0.9918% (59%)200,000 .. 500,0000%00:00 (00:00)
69 Annie Amber Jun 17, 2016 $2.9916% (57%)0 .. 20,0000%00:00 (00:00)
70 Boss Monster Apr 28, 2016 $4.9916% (57%)20,000 .. 50,0000%00:00 (00:00)
71 Hardware Engineering Sep 28, 2016 $4.9915% (56%)0 .. 20,0000%00:00 (00:00)
72 Autocraft Sep 20, 2017 $9.9914% (54%)20,000 .. 50,0000%00:00 (00:00)
73 Pointless Feb 22, 2016 Free13% (53%)0 .. 20,0000%00:00 (00:00)
74 1953: NATO vs Warsaw Pact Dec 4, 2014 $19.9913% (52%)0 .. 20,0000%00:00 (00:00)
75 Quantum Rush Champions Dec 4, 2014 $9.9912% (51%)20,000 .. 50,0000%00:00 (00:00)
76 The Good Life Nov 21, 2014 $9.9912% (51%)0 .. 20,0000%00:00 (00:00)
77 Cosmonautica Jul 31, 2015 $9.9912% (51%)100,000 .. 200,0000%00:00 (00:00)
78 BomberZone May 27, 2016 $1.9911% (50%)20,000 .. 50,0000.49%05:53 (01:57)
79 Autumn Sep 23, 2014 $2.9911% (50%)50,000 .. 100,0000%00:00 (00:00)
80 Evolution Jun 6, 2016 Free9% (46%)20,000 .. 50,0000%00:00 (00:00)
81 Luke Sidewalker Nov 25, 2016 $0.999% (46%)50,000 .. 100,0000.51%00:30 (00:10)
82 Melting Hearts: Our Love Will Grow 2 Apr 29, 2016 N/A8% (45%)20,000 .. 50,0000%00:00 (00:00)
83 White Mirror Jan 26, 2016 $1.996% (39%)200,000 .. 500,0000.13%03:13 (01:04)
84 The Battle for Sector 219 Jun 2, 2016 $6.99N/A (N/A)0 .. 20,0000%00:00 (00:00)
85 Space Beret Oct 25, 2016 $0.995% (36%)200,000 .. 500,0000.42%03:30 (04:13)
86 Robot vs Birds Zombies Jun 1, 2013 $0.993% (31%)0 .. 20,0000%00:00 (00:00)
87 Guardians of Victoria Apr 29, 2016 $1.992% (22%)200,000 .. 500,0000.15%03:34 (02:22)
88 Yrminsul Mar 2, 2016 $9.99N/A (N/A)0 .. 20,0000%00:00 (00:00)
89 Blob From Space Oct 15, 2014 $5.99N/A (N/A)20,000 .. 50,0000%00:00 (00:00)
90 Magic Box Jan 19, 2017 $0.99N/A (N/A)50,000 .. 100,0000%00:00 (00:00)
91 Crab Cakes Rescue Nov 14, 2014 $6.99N/A (N/A)20,000 .. 50,0000%00:00 (00:00)
92 Reigning Cats Aug 28, 2015 $1.99N/A (N/A)0 .. 20,0000%00:00 (00:00)
93 Way to Go! Jun 8, 2015 $4.99N/A (N/A)0 .. 20,0001.25%00:03 (00:01)
94 Zombie Gotchi Mar 23, 2016 $9.99N/A (N/A)0 .. 20,0000%00:00 (00:00)
95 Plight of the Zombie Feb 22, 2016 $2.99N/A (N/A)0 .. 20,0000%00:00 (00:00)
96 The Architect Jun 4, 2015 $2.99N/A (N/A)0 .. 20,0000%00:00 (00:00)
97 Tyler Jan 14, 2016 $1.01N/A (N/A)0 .. 20,0000%00:00 (00:00)
98 Robot Rescue Revolution Jul 11, 2014 $4.99N/A (N/A)0 .. 20,0000%00:00 (00:00)

Tags over time:

Access restricted.

This feature is only available to users with special access rights. Sorry.

If you want to proceed, you need to register or log in first and then back Steam Spy on Patreon. Look for Indie or Pro pledge.

Don't forget to use the same email as on Steam Spy!

Owners of this game also own:

Access restricted.

This feature is only available to users with special access rights. Sorry.

If you want to proceed, you need to register or log in first and then back Steam Spy on Patreon. Look for Indie or Pro pledge.

Don't forget to use the same email as on Steam Spy!

Playtime distribution:

Access restricted.

This feature is only available to users with special access rights. Sorry.

If you want to proceed, you need to register or log in first and then back Steam Spy on Patreon. Look for Indie or Pro pledge.

Don't forget to use the same email as on Steam Spy!

Playtime (2 weeks):

Access restricted.

This feature is only available to users with special access rights. Sorry.

If you want to proceed, you need to register or log in first and then back Steam Spy on Patreon. Look for Indie or Pro pledge.

Don't forget to use the same email as on Steam Spy!

User reviews:

Login required.

Please register or log in to see this information.